createdAt,value
2018-08-06T00:00:42.994Z,25.58
2018-08-06T00:01:42.991Z,25.68
2018-08-06T00:02:42.979Z,26.54
2018-08-06T00:03:42.975Z,26.82
2018-08-06T00:04:42.973Z,26.44
2018-08-06T00:05:42.961Z,26.44
2018-08-06T00:06:42.954Z,26.63
2018-08-06T00:07:42.948Z,26.44
2018-08-06T00:08:42.938Z,25.57
2018-08-06T00:09:42.959Z,25.57
2018-08-06T00:10:42.932Z,24.43
2018-08-06T00:11:42.923Z,23.47
2018-08-06T00:12:42.914Z,23.85
2018-08-06T00:13:42.652Z,23.57
2018-08-06T00:14:42.902Z,23.66
2018-08-06T00:15:42.900Z,23.85
2018-08-06T00:16:42.891Z,23.57
2018-08-06T00:17:42.884Z,23.28
2018-08-06T00:18:42.876Z,22.61
2018-08-06T00:19:42.872Z,23.09
2018-08-06T00:20:42.867Z,22.71
2018-08-06T00:21:42.862Z,22.61
2018-08-06T00:22:42.851Z,21.84
2018-08-06T00:23:42.850Z,21.47
2018-08-06T00:24:42.838Z,21.28
2018-08-06T00:25:42.832Z,21.08
2018-08-06T00:26:42.834Z,20.89
2018-08-06T00:27:42.822Z,20.99
2018-08-06T00:28:42.810Z,21.37
2018-08-06T00:29:42.963Z,22.04
2018-08-06T00:30:42.543Z,21.56
2018-08-06T00:31:42.796Z,21.47
2018-08-06T00:32:42.786Z,21.18
2018-08-06T00:33:42.521Z,21.18
2018-08-06T00:34:42.788Z,20.7
2018-08-06T00:35:42.770Z,21.18
2018-08-06T00:36:42.502Z,20.99
2018-08-06T00:37:42.753Z,20.61
2018-08-06T00:38:42.744Z,19.65
2018-08-06T00:39:42.739Z,19.46
2018-08-06T00:40:42.735Z,19.65
2018-08-06T00:41:42.736Z,20.23
2018-08-06T00:42:42.718Z,20.51
2018-08-06T00:43:42.455Z,20.32
2018-08-06T00:44:42.706Z,19.84
2018-08-06T00:45:42.698Z,18.98
2018-08-06T00:46:42.698Z,18.98
2018-08-06T00:47:42.685Z,18.21
2018-08-06T00:48:42.682Z,17.17
2018-08-06T00:49:42.671Z,16.12
2018-08-06T00:50:42.663Z,16.03
2018-08-06T00:51:42.401Z,16.69
2018-08-06T00:52:42.398Z,16.97
2018-08-06T00:53:42.647Z,16.5
2018-08-06T00:54:42.636Z,16.02
2018-08-06T00:55:42.373Z,15.92
2018-08-06T00:56:42.623Z,15.16
2018-08-06T00:57:42.621Z,14.21
2018-08-06T00:58:42.352Z,13.35
2018-08-06T00:59:42.610Z,13.35
2018-08-06T01:00:42.602Z,13.35
2018-08-06T01:01:42.588Z,12.21
2018-08-06T01:02:42.583Z,12.21
2018-08-06T01:03:42.574Z,12.21
2018-08-06T01:04:42.571Z,13.16
2018-08-06T01:05:42.563Z,14.11
2018-08-06T01:06:42.554Z,13.35
2018-08-06T01:07:42.558Z,12.3
2018-08-06T01:08:42.540Z,11.82
2018-08-06T01:09:42.533Z,11.63
2018-08-06T01:10:42.529Z,12.4
2018-08-06T01:11:42.521Z,13.06
2018-08-06T01:12:42.516Z,13.06
2018-08-06T01:13:42.249Z,12.4
2018-08-06T01:14:42.246Z,11.35
2018-08-06T01:15:42.495Z,11.35
2018-08-06T01:16:42.487Z,11.72
2018-08-06T01:17:42.223Z,11.92
2018-08-06T01:18:42.475Z,11.54
2018-08-06T01:19:42.467Z,11.82
2018-08-06T01:20:42.200Z,11.54
2018-08-06T01:21:42.451Z,11.82
2018-08-06T01:22:42.193Z,11.82
2018-08-06T01:23:42.440Z,11.06
2018-08-06T01:24:42.434Z,11.25
2018-08-06T01:25:42.165Z,10.58
2018-08-06T01:26:42.159Z,10.3
2018-08-06T01:27:42.410Z,10.39
2018-08-06T01:28:42.404Z,10.39
2018-08-06T01:29:42.394Z,10.3
2018-08-06T01:30:42.393Z,10.2
2018-08-06T01:31:42.126Z,10.11
2018-08-06T01:32:42.381Z,9.25
2018-08-06T01:33:42.367Z,9.16
2018-08-06T01:34:42.362Z,8.87
2018-08-06T01:35:42.351Z,9.06
2018-08-06T01:36:42.345Z,9.82
2018-08-06T01:37:42.345Z,10.68
2018-08-06T01:38:42.330Z,11.54
2018-08-06T01:39:42.323Z,10.49
2018-08-06T01:40:42.063Z,9.72
2018-08-06T01:41:42.308Z,8.87
2018-08-06T01:42:42.300Z,8.2
2018-08-06T01:43:42.292Z,9.16
2018-08-06T01:44:42.289Z,10.01
2018-08-06T01:45:42.342Z,10.68
2018-08-06T01:46:42.272Z,10.3
2018-08-06T01:47:42.008Z,10.01
2018-08-06T01:48:42.258Z,10.11
2018-08-06T01:49:42.253Z,10.2
2018-08-06T01:50:42.250Z,10.58
2018-08-06T01:51:42.234Z,10.58
2018-08-06T01:52:42.234Z,10.3
2018-08-06T01:53:42.223Z,9.16
2018-08-06T01:54:42.214Z,8.39
2018-08-06T01:55:42.212Z,7.43
2018-08-06T01:56:42.198Z,8.01
2018-08-06T01:57:42.207Z,7.82
2018-08-06T01:58:42.189Z,7.53
2018-08-06T01:59:42.174Z,7.24
2018-08-06T02:00:42.177Z,6.67
2018-08-06T02:01:42.164Z,6.67
2018-08-06T02:02:42.159Z,6.76
2018-08-06T02:03:42.152Z,7.15
2018-08-06T02:04:42.145Z,6.67
2018-08-06T02:05:42.139Z,6.58
2018-08-06T02:06:41.869Z,6.67
2018-08-06T02:07:41.866Z,7.43
2018-08-06T02:08:41.857Z,8.2
2018-08-06T02:09:42.103Z,8.76
2018-08-06T02:10:42.098Z,8.96
2018-08-06T02:11:42.094Z,8.58
2018-08-06T02:12:42.080Z,8.1
2018-08-06T02:13:42.072Z,7.53
2018-08-06T02:14:42.065Z,7.15
2018-08-06T02:15:42.061Z,6.86
2018-08-06T02:16:42.054Z,6.48
2018-08-06T02:17:42.044Z,6.67
2018-08-06T02:18:41.780Z,6.67
2018-08-06T02:19:42.029Z,7.15
2018-08-06T02:20:42.030Z,6.96
2018-08-06T02:21:42.014Z,6.57
2018-08-06T02:22:42.013Z,6.38
2018-08-06T02:23:41.750Z,6.38
2018-08-06T02:24:41.993Z,6.1
2018-08-06T02:25:41.983Z,5.43
2018-08-06T02:26:41.978Z,5.33
2018-08-06T02:27:41.979Z,4.86
2018-08-06T02:28:41.972Z,4.1
2018-08-06T02:29:41.957Z,4.19
2018-08-06T02:30:41.953Z,4.19
2018-08-06T02:31:41.684Z,4.28
2018-08-06T02:32:41.940Z,4.38
2018-08-06T02:33:41.927Z,5.24
2018-08-06T02:34:41.918Z,5.72
2018-08-06T02:35:41.916Z,5.52
2018-08-06T02:36:41.906Z,5.72
2018-08-06T02:37:41.655Z,5.33
2018-08-06T02:38:41.887Z,5.24
2018-08-06T02:39:41.885Z,5.62
2018-08-06T02:40:41.876Z,6
2018-08-06T02:41:41.866Z,6.2
2018-08-06T02:42:41.863Z,6.67
2018-08-06T02:43:41.597Z,7.05
2018-08-06T02:44:41.848Z,6.76
2018-08-06T02:45:41.835Z,5.72
2018-08-06T02:46:41.825Z,5.33
2018-08-06T02:47:41.562Z,4.67
2018-08-06T02:48:41.813Z,3.81
2018-08-06T02:49:41.805Z,2.76
2018-08-06T02:50:41.815Z,1.81
2018-08-06T02:51:41.789Z,0.28
2018-08-06T02:52:41.781Z,0
2018-08-06T02:53:41.774Z,0
2018-08-06T02:54:41.771Z,0
2018-08-06T02:55:41.756Z,0
2018-08-06T02:56:41.752Z,0
2018-08-06T02:57:41.745Z,0
2018-08-06T02:58:41.738Z,0
2018-08-06T02:59:41.725Z,0.28
2018-08-06T03:00:41.768Z,1.04
2018-08-06T03:01:41.456Z,2.57
2018-08-06T03:02:41.709Z,3.33
2018-08-06T03:03:41.702Z,4.57
2018-08-06T03:04:41.692Z,5.24
2018-08-06T03:05:41.682Z,5.62
2018-08-06T03:06:41.674Z,5.24
2018-08-06T03:07:41.412Z,5.43
2018-08-06T03:08:41.403Z,5.05
2018-08-06T03:09:41.650Z,4.86
2018-08-06T03:10:41.644Z,5.15
2018-08-06T03:11:41.636Z,6.1
2018-08-06T03:12:41.631Z,6.76
2018-08-06T03:13:41.620Z,7.81
2018-08-06T03:14:41.610Z,8.29
2018-08-06T03:15:41.605Z,8.96
2018-08-06T03:16:41.600Z,9.24
2018-08-06T03:17:41.591Z,9.34
2018-08-06T03:18:41.581Z,8.76
2018-08-06T03:19:41.576Z,8.76
2018-08-06T03:20:41.568Z,8.96
2018-08-06T03:21:41.306Z,8.86
2018-08-06T03:22:41.292Z,9.34
2018-08-06T03:23:41.539Z,9.24
2018-08-06T03:24:41.531Z,9.81
2018-08-06T03:25:41.267Z,9.81
2018-08-06T03:26:41.517Z,9.43
2018-08-06T03:27:41.511Z,8.96
2018-08-06T03:28:41.508Z,8.86
2018-08-06T03:29:41.607Z,8.76
2018-08-06T03:30:41.485Z,8.09
2018-08-06T03:31:41.488Z,7.53
2018-08-06T03:32:41.214Z,6.76
2018-08-06T03:33:41.462Z,6.2
2018-08-06T03:34:41.197Z,6.2
2018-08-06T03:35:41.188Z,7.05
2018-08-06T03:36:41.440Z,8.29
2018-08-06T03:37:41.432Z,8.86
2018-08-06T03:38:41.427Z,9.24
2018-08-06T03:39:41.413Z,8.95
2018-08-06T03:40:41.152Z,8.19
2018-08-06T03:41:41.140Z,7.71
2018-08-06T03:42:41.389Z,7.33
2018-08-06T03:43:41.384Z,7.33
2018-08-06T03:44:41.118Z,7.9
2018-08-06T03:45:41.365Z,8
2018-08-06T03:46:41.356Z,8.09
2018-08-06T03:47:41.352Z,8.19
2018-08-06T03:48:41.343Z,7.71
2018-08-06T03:49:41.338Z,7.81
2018-08-06T03:50:41.327Z,7.81
2018-08-06T03:51:41.318Z,7.62
2018-08-06T03:52:41.397Z,7.81
2018-08-06T03:53:41.305Z,8.48
2018-08-06T03:54:41.295Z,9.05
2018-08-06T03:55:41.285Z,10
2018-08-06T03:56:41.020Z,10.1
2018-08-06T03:57:41.012Z,10.67
2018-08-06T03:58:41.265Z,10.86
2018-08-06T03:59:40.996Z,11.33
2018-08-06T04:00:41.246Z,11.81
2018-08-06T04:01:41.244Z,11.81
2018-08-06T04:02:41.228Z,11.52
2018-08-06T04:03:40.962Z,11.62
2018-08-06T04:04:40.957Z,11.62
2018-08-06T04:05:41.206Z,11.05
2018-08-06T04:06:41.196Z,10.57
2018-08-06T04:07:41.192Z,10.1
2018-08-06T04:08:41.184Z,9.62
2018-08-06T04:09:41.177Z,9.05
2018-08-06T04:10:41.166Z,8.09
2018-08-06T04:11:41.158Z,7.33
2018-08-06T04:12:40.895Z,7.14
2018-08-06T04:13:41.239Z,7.14
2018-08-06T04:14:40.880Z,6.57
2018-08-06T04:15:41.126Z,5.9
2018-08-06T04:16:41.125Z,5.52
2018-08-06T04:17:41.123Z,5.52
2018-08-06T04:18:41.099Z,5.52
2018-08-06T04:19:41.176Z,5.43
2018-08-06T04:20:41.089Z,5.62
2018-08-06T04:21:41.079Z,5.43
2018-08-06T04:22:41.078Z,5.14
2018-08-06T04:23:41.065Z,5.24
2018-08-06T04:24:41.061Z,5.14
2018-08-06T04:25:41.051Z,5.52
2018-08-06T04:26:41.042Z,5.62
2018-08-06T04:27:41.031Z,5.52
2018-08-06T04:28:41.021Z,6
2018-08-06T04:29:41.013Z,7.05
2018-08-06T04:30:41.008Z,7.33
2018-08-06T04:31:40.997Z,7.71
2018-08-06T04:32:41.101Z,8.09
2018-08-06T04:33:40.987Z,8.19
2018-08-06T04:34:40.973Z,8.09
2018-08-06T04:35:40.711Z,7.81
2018-08-06T04:36:40.698Z,8
2018-08-06T04:37:40.947Z,7.81
2018-08-06T04:38:41.029Z,7.71
2018-08-06T04:39:40.933Z,8.1
2018-08-06T04:40:40.929Z,8
2018-08-06T04:41:40.663Z,8.29
2018-08-06T04:42:40.908Z,8.29
2018-08-06T04:43:40.901Z,8.39
2018-08-06T04:44:40.894Z,8.86
2018-08-06T04:45:40.886Z,8.58
2018-08-06T04:46:40.881Z,8.76
2018-08-06T04:47:40.611Z,9.05
2018-08-06T04:48:40.865Z,9.44
2018-08-06T04:49:40.854Z,10.39
2018-08-06T04:50:40.591Z,10.39
2018-08-06T04:51:40.839Z,10.86
2018-08-06T04:52:40.830Z,11.44
2018-08-06T04:53:40.566Z,11.53
2018-08-06T04:54:40.818Z,11.72
2018-08-06T04:55:40.808Z,11.34
2018-08-06T04:56:40.798Z,11.24
2018-08-06T04:57:40.540Z,11.34
2018-08-06T04:58:40.786Z,11.53
2018-08-06T04:59:40.876Z,12.21
2018-08-06T05:00:40.771Z,13.35
2018-08-06T05:01:40.760Z,13.82
2018-08-06T05:02:40.760Z,13.82
2018-08-06T05:03:40.755Z,13.35
2018-08-06T05:04:40.480Z,13.35
2018-08-06T05:05:40.730Z,13.54
2018-08-06T05:06:40.463Z,13.73
2018-08-06T05:07:40.717Z,14.69
2018-08-06T05:08:40.706Z,15.16
2018-08-06T05:09:40.698Z,15.45
2018-08-06T05:10:40.689Z,15.83
2018-08-06T05:11:40.685Z,16.02
2018-08-06T05:12:40.674Z,16.02
2018-08-06T05:13:40.769Z,16.21
2018-08-06T05:14:40.667Z,16.02
2018-08-06T05:15:40.655Z,16.21
2018-08-06T05:16:40.650Z,16.11
2018-08-06T05:17:40.638Z,16.5
2018-08-06T05:18:40.374Z,16.31
2018-08-06T05:19:40.366Z,16.03
2018-08-06T05:20:40.360Z,14.88
2018-08-06T05:21:40.611Z,14.69
2018-08-06T05:22:40.600Z,14.79
2018-08-06T05:23:40.595Z,15.45
2018-08-06T05:24:40.641Z,15.45
2018-08-06T05:25:40.324Z,16.31
2018-08-06T05:26:40.576Z,16.79
2018-08-06T05:27:40.321Z,16.89
2018-08-06T05:28:40.556Z,16.89
2018-08-06T05:29:40.548Z,16.79
2018-08-06T05:30:40.335Z,16.22
2018-08-06T05:31:40.279Z,15.74
2018-08-06T05:32:40.531Z,15.45
2018-08-06T05:33:40.522Z,13.93
2018-08-06T05:34:40.511Z,13.26
2018-08-06T05:35:40.502Z,14.03
2018-08-06T05:36:40.500Z,17.56
2018-08-06T05:37:40.235Z,21.38
2018-08-06T05:38:40.490Z,23.29
2018-08-06T05:39:40.481Z,22.62
2018-08-06T05:40:40.476Z,22.33
2018-08-06T05:41:40.467Z,22.14
2018-08-06T05:42:40.461Z,22.06
2018-08-06T05:43:40.455Z,21.95
2018-08-06T05:44:40.441Z,21.87
2018-08-06T05:45:40.434Z,23.02
2018-08-06T05:46:40.435Z,23.59
2018-08-06T05:47:40.424Z,24.64
2018-08-06T05:48:40.158Z,25.59
2018-08-06T05:49:40.408Z,26.26
2018-08-06T05:50:40.406Z,26.26
2018-08-06T05:51:40.141Z,26.93
2018-08-06T05:52:40.394Z,27.03
2018-08-06T05:53:40.386Z,27.41
2018-08-06T05:54:40.376Z,26.93
2018-08-06T05:55:40.377Z,26.93
2018-08-06T05:56:40.388Z,26.93
2018-08-06T05:57:40.357Z,27.04
2018-08-06T05:58:40.093Z,26.75
2018-08-06T05:59:40.087Z,26.18
2018-08-06T06:00:40.083Z,26.18
2018-08-06T06:01:40.330Z,27.23
2018-08-06T06:02:40.078Z,27.8
2018-08-06T06:03:40.061Z,28
2018-08-06T06:04:40.317Z,29.05
2018-08-06T06:05:40.308Z,29.14
2018-08-06T06:06:40.042Z,29.33
2018-08-06T06:07:40.298Z,29.43
2018-08-06T06:08:40.034Z,29.62
2018-08-06T06:09:40.283Z,29.62
2018-08-06T06:10:40.273Z,29.81
2018-08-06T06:11:40.266Z,29.91
2018-08-06T06:12:40.262Z,30.21
2018-08-06T06:13:40.256Z,30.4
2018-08-06T06:14:40.253Z,30.98
2018-08-06T06:15:40.245Z,32.98
2018-08-06T06:16:39.983Z,31.84
2018-08-06T06:17:40.250Z,31.74
2018-08-06T06:18:39.972Z,33.56
2018-08-06T06:19:40.222Z,34.13
2018-08-06T06:20:40.228Z,34.51
2018-08-06T06:21:40.213Z,34.89
2018-08-06T06:22:40.205Z,34.89
2018-08-06T06:23:40.198Z,38.34
2018-08-06T06:24:40.192Z,42.18
2018-08-06T06:25:40.259Z,46.1
2018-08-06T06:26:40.184Z,50.02
2018-08-06T06:27:40.176Z,51.84
2018-08-06T06:28:40.289Z,53.66
2018-08-06T06:29:39.906Z,55.57
2018-08-06T06:30:39.901Z,56.82
2018-08-06T06:31:40.156Z,57.97
2018-08-06T06:32:40.147Z,62.3
2018-08-06T06:33:39.885Z,67.82
2018-08-06T06:34:40.458Z,70.24
2018-08-06T06:35:40.132Z,74.07
2018-08-06T06:36:40.125Z,75.79
2018-08-06T06:37:40.119Z,74.07
2018-08-06T06:38:39.862Z,75.89
2018-08-06T06:39:40.114Z,77.61
2018-08-06T06:40:40.109Z,81.92
2018-08-06T06:41:40.125Z,90.58
2018-08-06T06:42:39.846Z,92.3
2018-08-06T06:43:40.090Z,90.67
2018-08-06T06:44:39.833Z,92.49
2018-08-06T06:45:40.079Z,93.16
2018-08-06T06:46:40.078Z,95.31
2018-08-06T06:47:39.815Z,98.19
2018-08-06T06:48:40.073Z,99.99
2018-08-06T06:49:39.804Z,99.99
2018-08-06T06:50:40.062Z,99.99
2018-08-06T06:51:40.111Z,99.99
2018-08-06T06:52:40.051Z,99.99
2018-08-06T06:53:40.047Z,99.99
2018-08-06T06:54:40.050Z,99.99
2018-08-06T06:55:39.781Z,99.99
2018-08-06T06:56:39.776Z,99.99
2018-08-06T06:57:40.029Z,99.99
2018-08-06T06:58:40.026Z,95.5
2018-08-06T06:59:40.026Z,94.68
2018-08-06T07:00:39.760Z,72.99
2018-08-06T07:01:40.019Z,55.62
2018-08-06T07:02:40.015Z,50.55
2018-08-06T07:03:40.013Z,53.21
2018-08-06T07:04:40.012Z,49
2018-08-06T07:05:40.011Z,49.24
2018-08-06T07:06:39.752Z,47.45
2018-08-06T07:07:40.027Z,42.64
2018-08-06T07:08:40.007Z,39.57
2018-08-06T07:09:40.010Z,37.06
2018-08-06T07:10:40.013Z,35.53
2018-08-06T07:11:40.016Z,36.92
2018-08-06T07:12:39.756Z,31.67
2018-08-06T07:13:40.212Z,29.35
2018-08-06T07:14:39.756Z,29.35
2018-08-06T07:15:40.014Z,32.39
2018-08-06T07:16:40.039Z,29.57
2018-08-06T07:17:39.764Z,27.73
2018-08-06T07:18:39.770Z,27.16
2018-08-06T07:19:39.771Z,29.5
2018-08-06T07:20:40.035Z,29.41
2018-08-06T07:21:40.034Z,28.74
2018-08-06T07:22:40.039Z,30.22
2018-08-06T07:23:40.050Z,33.85
2018-08-06T07:24:40.060Z,29.25
2018-08-06T07:25:40.057Z,28.58
2018-08-06T07:26:40.077Z,25.84
2018-08-06T07:27:40.063Z,24.68
2018-08-06T07:28:40.065Z,25.95
2018-08-06T07:29:40.074Z,28.79
2018-08-06T07:30:40.077Z,26.83
2018-08-06T07:31:40.083Z,26.05
2018-08-06T07:32:40.090Z,23.41
2018-08-06T07:33:40.138Z,22.91
2018-08-06T07:34:40.104Z,23.31
2018-08-06T07:35:40.112Z,22.53
2018-08-06T07:36:39.859Z,21.45
2018-08-06T07:37:40.123Z,21.85
2018-08-06T07:38:39.871Z,21.66
2018-08-06T07:39:40.140Z,21.45
2018-08-06T07:40:40.146Z,21.36
2018-08-06T07:41:40.156Z,24.11
2018-08-06T07:42:40.161Z,28.53
2018-08-06T07:43:40.161Z,25.99
2018-08-06T07:44:40.172Z,24.91
2018-08-06T07:45:40.182Z,22.27
2018-08-06T07:46:40.185Z,20.81
2018-08-06T07:47:39.939Z,22.2
2018-08-06T07:48:40.200Z,21.22
2018-08-06T07:49:40.361Z,21.12
2018-08-06T07:50:40.220Z,20.14
2018-08-06T07:51:39.966Z,19.54
2018-08-06T07:52:40.255Z,22.28
2018-08-06T07:53:39.980Z,23.36
2018-08-06T07:54:39.985Z,22.09
2018-08-06T07:55:40.255Z,23.36
2018-08-06T07:56:40.260Z,22.38
2018-08-06T07:57:40.264Z,21.69
2018-08-06T07:58:40.015Z,24.73
2018-08-06T07:59:40.343Z,22.85
2018-08-06T08:00:40.288Z,20.98
2018-08-06T08:01:40.041Z,21.06
2018-08-06T08:02:40.300Z,22.6
2018-08-06T08:03:40.304Z,23.75
2018-08-06T08:04:40.309Z,24.32
2018-08-06T08:05:40.316Z,24.79
2018-08-06T08:06:40.321Z,25.74
2018-08-06T08:07:40.329Z,29.13
2018-08-06T08:08:40.076Z,30.67
2018-08-06T08:09:40.341Z,32.11
2018-08-06T08:10:40.342Z,30.72
2018-08-06T08:11:40.349Z,31.38
2018-08-06T08:12:40.097Z,33.53
2018-08-06T08:13:40.105Z,33.7
2018-08-06T08:14:40.107Z,32.23
2018-08-06T08:15:40.371Z,32.6
2018-08-06T08:16:40.377Z,33.38
2018-08-06T08:17:40.376Z,41.41
2018-08-06T08:18:40.384Z,37.73
2018-08-06T08:19:40.735Z,35.67
2018-08-06T08:20:40.387Z,35.09
2018-08-06T08:21:40.134Z,34.89
2018-08-06T08:22:40.142Z,36.24
2018-08-06T08:23:40.403Z,35.94
2018-08-06T08:24:40.402Z,33.89
2018-08-06T08:25:40.148Z,34.47
2018-08-06T08:26:40.411Z,34.67
2018-08-06T08:27:40.414Z,38.23
2018-08-06T08:28:40.416Z,36.1
2018-08-06T08:29:40.425Z,38.04
2018-08-06T08:30:40.427Z,37.24
2018-08-06T08:31:40.427Z,37.92
2018-08-06T08:32:40.179Z,37.17
2018-08-06T08:33:40.431Z,36.96
2018-08-06T08:34:40.436Z,38.12
2018-08-06T08:35:40.438Z,36.86
2018-08-06T08:36:40.442Z,38.5
2018-08-06T08:37:40.187Z,39.37
2018-08-06T08:38:40.448Z,38.5
2018-08-06T08:39:40.637Z,40.44
2018-08-06T08:40:40.458Z,39.59
2018-08-06T08:41:40.463Z,37.85
2018-08-06T08:42:40.455Z,38.13
2018-08-06T08:43:40.204Z,38.81
2018-08-06T08:44:40.469Z,39.39
2018-08-06T08:45:40.764Z,38.53
2018-08-06T08:46:40.469Z,38.13
2018-08-06T08:47:40.215Z,37.94
2018-08-06T08:48:40.474Z,37.17
2018-08-06T08:49:40.474Z,38.04
2018-08-06T08:50:40.479Z,38.04
2018-08-06T08:51:40.481Z,38.23
2018-08-06T08:52:40.493Z,37.65
2018-08-06T08:53:40.229Z,38.04
2018-08-06T08:54:40.491Z,39.57
2018-08-06T08:55:40.491Z,38.7
2018-08-06T08:56:40.491Z,40.44
2018-08-06T08:57:40.496Z,42.18
2018-08-06T08:58:40.629Z,40.07
2018-08-06T08:59:40.499Z,39.29
2018-08-06T09:00:40.501Z,41.04
2018-08-06T09:01:40.506Z,39.39
2018-08-06T09:02:40.507Z,38.43
2018-08-06T09:03:40.512Z,38.04
2018-08-06T09:04:40.511Z,39.88
2018-08-06T09:05:40.514Z,39.7
2018-08-06T09:06:40.515Z,38.81
2018-08-06T09:07:40.522Z,40.94
2018-08-06T09:08:40.522Z,38.73
2018-08-06T09:09:40.524Z,37.77
2018-08-06T09:10:40.269Z,39.12
2018-08-06T09:11:40.268Z,39.03
2018-08-06T09:12:40.528Z,37.67
2018-08-06T09:13:40.532Z,36.8
2018-08-06T09:14:40.531Z,36.8
2018-08-06T09:15:40.542Z,35.93
2018-08-06T09:16:40.537Z,36.9
2018-08-06T09:17:40.538Z,37.65
2018-08-06T09:18:40.539Z,36.68
2018-08-06T09:19:40.542Z,37.07
2018-08-06T09:20:40.550Z,40.46
2018-08-06T09:21:40.553Z,39.2
2018-08-06T09:22:40.547Z,36.9
2018-08-06T09:23:40.296Z,36.78
2018-08-06T09:24:40.560Z,37.94
2018-08-06T09:25:40.552Z,38.25
2018-08-06T09:26:40.600Z,37.87
2018-08-06T09:27:40.572Z,41.83
2018-08-06T09:28:40.561Z,40.28
2018-08-06T09:29:40.308Z,37.01
2018-08-06T09:30:40.562Z,36.72
2018-08-06T09:31:40.567Z,38.46
2018-08-06T09:32:40.567Z,39.53
2018-08-06T09:33:40.572Z,39.04
2018-08-06T09:34:40.579Z,39.92
2018-08-06T09:35:40.583Z,38.39
2018-08-06T09:36:40.580Z,36.44
2018-08-06T09:37:40.586Z,37.13
2018-08-06T09:38:40.586Z,36.91
2018-08-06T09:39:40.584Z,35.77
2018-08-06T09:40:40.708Z,35.48
2018-08-06T09:41:40.588Z,35.38
2018-08-06T09:42:40.590Z,35.96
2018-08-06T09:43:40.591Z,34.69
2018-08-06T09:44:40.603Z,35.85
2018-08-06T09:45:40.602Z,35.94
2018-08-06T09:46:40.343Z,36.91
2018-08-06T09:47:40.629Z,37.11
2018-08-06T09:48:40.415Z,37.03
2018-08-06T09:49:40.351Z,35.67
2018-08-06T09:50:40.615Z,36.93
2018-08-06T09:51:40.355Z,34.99
2018-08-06T09:52:40.614Z,33.73
2018-08-06T09:53:40.622Z,33.83
2018-08-06T09:54:40.616Z,33.34
2018-08-06T09:55:40.365Z,32.76
2018-08-06T09:56:40.622Z,34.2
2018-08-06T09:57:40.635Z,35.46
2018-08-06T09:58:40.625Z,34.01
2018-08-06T09:59:40.375Z,34.59
2018-08-06T10:00:40.381Z,34.3
2018-08-06T10:01:40.637Z,35.07
2018-08-06T10:02:40.638Z,34.11
2018-08-06T10:03:40.641Z,34.69
2018-08-06T10:04:40.388Z,34.78
2018-08-06T10:05:40.868Z,33.81
2018-08-06T10:06:41.100Z,34.3
2018-08-06T10:07:40.652Z,35.46
2018-08-06T10:08:40.397Z,34.88
2018-08-06T10:09:40.398Z,33.81
2018-08-06T10:10:40.658Z,35.27
2018-08-06T10:11:40.659Z,35.57
2018-08-06T10:12:40.662Z,35.77
2018-08-06T10:13:40.670Z,34.41
2018-08-06T10:14:40.408Z,33.83
2018-08-06T10:15:40.677Z,34.22
2018-08-06T10:16:40.668Z,34.02
2018-08-06T10:17:40.671Z,33.92
2018-08-06T10:18:40.799Z,34.12
2018-08-06T10:19:40.832Z,34.22
2018-08-06T10:20:40.426Z,34.12
2018-08-06T10:21:40.688Z,34.41
2018-08-06T10:22:40.690Z,33.34
2018-08-06T10:23:40.687Z,33.46
2018-08-06T10:24:40.472Z,33.25
2018-08-06T10:25:40.692Z,33.92
2018-08-06T10:26:40.695Z,33.06
2018-08-06T10:27:40.696Z,33.92
2018-08-06T10:28:40.700Z,32.96
2018-08-06T10:29:40.443Z,32.49
2018-08-06T10:30:40.979Z,31.99
2018-08-06T10:31:40.708Z,32.28
2018-08-06T10:32:40.712Z,34.02
2018-08-06T10:33:40.713Z,34.02
2018-08-06T10:34:40.459Z,33.92
2018-08-06T10:35:40.718Z,32.76
2018-08-06T10:36:40.720Z,34.89
2018-08-06T10:37:40.467Z,34.81
2018-08-06T10:38:40.729Z,35.98
2018-08-06T10:39:40.730Z,35.49
2018-08-06T10:40:40.732Z,33.84
2018-08-06T10:41:40.735Z,33.36
2018-08-06T10:42:40.733Z,32.49
2018-08-06T10:43:40.738Z,33.56
2018-08-06T10:44:40.745Z,33.17
2018-08-06T10:45:40.742Z,32.29
2018-08-06T10:46:40.489Z,32
2018-08-06T10:47:40.750Z,31.42
2018-08-06T10:48:40.906Z,32.78
2018-08-06T10:49:40.497Z,34.33
2018-08-06T10:50:40.753Z,34.14
2018-08-06T10:51:40.757Z,33.09
2018-08-06T10:52:40.762Z,34.06
2018-08-06T10:53:40.769Z,33.57
2018-08-06T10:54:40.765Z,32.99
2018-08-06T10:55:40.772Z,33.38
2018-08-06T10:56:40.779Z,32.41
2018-08-06T10:57:40.785Z,31.53
2018-08-06T10:58:40.783Z,31.63
2018-08-06T10:59:40.856Z,31.32
2018-08-06T11:00:40.813Z,31.62
2018-08-06T11:01:40.787Z,33.56
2018-08-06T11:02:40.793Z,33.38
2018-08-06T11:03:40.793Z,31.34
2018-08-06T11:04:40.795Z,31.73
2018-08-06T11:05:40.798Z,31.63
2018-08-06T11:06:40.984Z,32.21
2018-08-06T11:07:40.802Z,33.09
2018-08-06T11:08:40.834Z,32.71
2018-08-06T11:09:40.807Z,32.13
2018-08-06T11:10:40.557Z,30.68
2018-08-06T11:11:40.830Z,33.39
2018-08-06T11:12:40.819Z,30.48
2018-08-06T11:13:40.826Z,32.44
2018-08-06T11:14:40.890Z,33.61
2018-08-06T11:15:40.825Z,30.21
2018-08-06T11:16:40.851Z,31.08
2018-08-06T11:17:40.842Z,32.15
2018-08-06T11:18:40.847Z,32.54
2018-08-06T11:19:40.841Z,31.29
2018-08-06T11:20:40.853Z,30.5
2018-08-06T11:21:40.590Z,29.64
2018-08-06T11:22:40.850Z,31.08
2018-08-06T11:23:40.855Z,31.58
2018-08-06T11:24:40.856Z,32.45
2018-08-06T11:25:40.606Z,30.41
2018-08-06T11:26:40.869Z,29.25
2018-08-06T11:27:40.868Z,30.41
2018-08-06T11:28:41.068Z,30.22
2018-08-06T11:29:40.873Z,30.51
2018-08-06T11:30:40.879Z,30.22
2018-08-06T11:31:40.885Z,30.51
2018-08-06T11:32:40.892Z,30.8
2018-08-06T11:33:40.632Z,31.19
2018-08-06T11:34:40.895Z,31.19
2018-08-06T11:35:40.898Z,30.71
2018-08-06T11:36:40.650Z,30.61
2018-08-06T11:37:40.904Z,30.3
2018-08-06T11:38:40.653Z,29.24
2018-08-06T11:39:40.910Z,29.83
2018-08-06T11:40:40.911Z,32.73
2018-08-06T11:41:40.918Z,31.1
2018-08-06T11:42:40.920Z,30.21
2018-08-06T11:43:40.925Z,31.37
2018-08-06T11:44:40.927Z,31.08
2018-08-06T11:45:40.931Z,30.59
2018-08-06T11:46:40.678Z,30.3
2018-08-06T11:47:40.942Z,29.91
2018-08-06T11:48:40.939Z,30.4
2018-08-06T11:49:40.944Z,29.82
2018-08-06T11:50:40.948Z,30.68
2018-08-06T11:51:40.951Z,30.97
2018-08-06T11:52:40.960Z,30.29
2018-08-06T11:53:40.961Z,29.71
2018-08-06T11:54:40.961Z,29.8
2018-08-06T11:55:40.713Z,31.45
2018-08-06T11:56:40.789Z,31.26
2018-08-06T11:57:40.974Z,31.45
2018-08-06T11:58:40.972Z,31.35
2018-08-06T11:59:40.981Z,30.87
2018-08-06T12:00:40.980Z,31.45
2018-08-06T12:01:40.988Z,29.82
2018-08-06T12:02:40.992Z,29.8
2018-08-06T12:03:40.735Z,31.26
2018-08-06T12:04:40.997Z,30.19
2018-08-06T12:05:41.119Z,30.48
2018-08-06T12:06:41.006Z,30.97
2018-08-06T12:07:41.012Z,31.07
2018-08-06T12:08:40.794Z,30.48
2018-08-06T12:09:41.013Z,31.45
2018-08-06T12:10:41.022Z,30.69
2018-08-06T12:11:41.021Z,31.07
2018-08-06T12:12:41.023Z,31.47
2018-08-06T12:13:41.101Z,30.21
2018-08-06T12:14:40.777Z,30.69
2018-08-06T12:15:41.034Z,30.3
2018-08-06T12:16:41.036Z,31.08
2018-08-06T12:17:41.041Z,29.91
2018-08-06T12:18:40.788Z,30.01
2018-08-06T12:19:41.051Z,30.48
2018-08-06T12:20:41.050Z,30.69
2018-08-06T12:21:41.057Z,29.72
2018-08-06T12:22:40.801Z,29.12
2018-08-06T12:23:41.073Z,29.71
2018-08-06T12:24:41.066Z,30.29
2018-08-06T12:25:41.067Z,30.09
2018-08-06T12:26:41.075Z,30.68
2018-08-06T12:27:41.075Z,30.58
2018-08-06T12:28:41.080Z,31.26
2018-08-06T12:29:41.084Z,31.07
2018-08-06T12:30:41.089Z,30.58
2018-08-06T12:31:40.942Z,30.98
2018-08-06T12:32:41.098Z,31.57
2018-08-06T12:33:41.100Z,30.5
2018-08-06T12:34:41.097Z,30.69
2018-08-06T12:35:41.103Z,30.3
2018-08-06T12:36:41.103Z,30.5
2018-08-06T12:37:41.107Z,29.24
2018-08-06T12:38:41.114Z,30.59
2018-08-06T12:39:40.859Z,29.72
2018-08-06T12:40:41.123Z,29.91
2018-08-06T12:41:40.866Z,29.43
2018-08-06T12:42:41.128Z,29.82
2018-08-06T12:43:41.133Z,30.3
2018-08-06T12:44:41.135Z,31.08
2018-08-06T12:45:41.135Z,31.08
2018-08-06T12:46:41.144Z,29.14
2018-08-06T12:47:41.149Z,30.21
2018-08-06T12:48:41.149Z,30.4
2018-08-06T12:49:41.150Z,29.82
2018-08-06T12:50:41.153Z,29.72
2018-08-06T12:51:40.959Z,29.04
2018-08-06T12:52:41.165Z,29.05
2018-08-06T12:53:41.170Z,30.11
2018-08-06T12:54:41.174Z,30.11
2018-08-06T12:55:41.173Z,30.5
2018-08-06T12:56:41.177Z,31.58
2018-08-06T12:57:41.181Z,30.9
2018-08-06T12:58:41.192Z,30.22
2018-08-06T12:59:41.186Z,29.83
2018-08-06T13:00:41.188Z,30.04
2018-08-06T13:01:41.197Z,30.33